Time;durP1;ratioP1;P1;durP2;ratioP2;P2;SDS_P1;SDS_P2;PMS_P1;PMS_P2;Temp;Humidity;BMP_temperature;BMP_pressure;BME280_temperature;BME280_humidity;BME280_pressure;Samples;Min_cycle;Max_cycle;Signal;HPM_P1;HPM_P2
2023/03/27 00:00:22;;;;;;;7.30;1.63;;;;;;;2.63;87.08;101397.97;5027455;28;20037;-75
2023/03/27 00:02:48;;;;;;;5.07;1.90;;;;;;;2.66;87.70;101400.53;5023788;28;20091;-75
2023/03/27 00:05:15;;;;;;;5.20;1.50;;;;;;;2.63;87.84;101398.84;5007338;28;20029;-74
2023/03/27 00:07:41;;;;;;;8.65;1.77;;;;;;;2.65;87.91;101396.09;5009361;28;20034;-75
2023/03/27 00:10:08;;;;;;;8.85;2.25;;;;;;;2.70;87.93;101413.81;5007378;28;20042;-75
2023/03/27 00:12:34;;;;;;;9.57;1.80;;;;;;;2.66;88.11;101412.19;5008190;28;20021;-74
2023/03/27 00:15:00;;;;;;;5.82;2.40;;;;;;;2.74;88.64;101425.34;5008852;28;20401;-74
2023/03/27 00:17:26;;;;;;;8.77;1.48;;;;;;;2.74;88.72;101425.34;5008180;28;20126;-74
2023/03/27 00:19:52;;;;;;;6.78;2.03;;;;;;;2.72;88.59;101427.22;5009209;28;20549;-74
2023/03/27 00:22:17;;;;;;;11.05;1.65;;;;;;;2.73;88.75;101437.91;5009185;28;20101;-74
2023/03/27 00:24:43;;;;;;;8.80;2.13;;;;;;;2.71;88.71;101444.28;4999275;28;20029;-74
2023/03/27 00:27:08;;;;;;;4.07;1.90;;;;;;;2.73;88.47;101454.03;5028282;28;20382;-75
2023/03/27 00:29:34;;;;;;;8.25;1.92;;;;;;;2.66;88.70;101444.41;5028925;28;20176;-74
2023/03/27 00:31:59;;;;;;;8.15;1.92;;;;;;;2.71;88.79;101457.72;5013768;28;20038;-75
2023/03/27 00:34:25;;;;;;;5.20;1.48;;;;;;;2.69;89.07;101454.16;5021579;28;20448;-75
2023/03/27 00:36:52;;;;;;;5.25;1.55;;;;;;;2.70;88.54;101462.16;5023749;28;20145;-74
2023/03/27 00:39:18;;;;;;;4.13;1.50;;;;;;;2.67;88.99;101456.91;5040402;28;20029;-74
2023/03/27 00:41:44;;;;;;;8.10;2.05;;;;;;;2.66;89.04;101454.25;5006017;28;20022;-74
2023/03/27 00:44:29;;;;;;;6.97;1.65;;;;;;;2.62;88.72;101466.91;5022804;28;20038;-74
2023/03/27 00:46:56;;;;;;;6.63;1.60;;;;;;;2.57;88.60;101457.25;5007056;28;20037;-74
2023/03/27 00:49:23;;;;;;;4.28;2.25;;;;;;;2.49;88.75;101457.44;5007298;28;20034;-74
2023/03/27 00:51:51;;;;;;;3.13;1.40;;;;;;;2.45;89.59;101469.19;5006850;28;20077;-75
2023/03/27 00:54:25;;;;;;;2.72;1.52;;;;;;;2.41;89.82;101475.59;5007205;28;20025;-75
2023/03/27 00:56:54;;;;;;;5.13;1.65;;;;;;;2.39;89.86;101488.19;5022445;28;20066;-75
2023/03/27 00:59:23;;;;;;;3.67;1.50;;;;;;;2.39;90.04;101482.81;5016071;28;20602;-75
2023/03/27 01:01:49;;;;;;;7.30;1.30;;;;;;;2.39;90.38;101483.69;5006804;28;20433;-74
2023/03/27 01:04:20;;;;;;;7.63;2.30;;;;;;;2.41;90.00;101483.63;5007249;28;20026;-75
2023/03/27 01:06:48;;;;;;;5.57;1.58;;;;;;;2.44;90.85;101484.44;5006952;28;20030;-74
2023/03/27 01:09:14;;;;;;;7.28;1.42;;;;;;;2.46;90.51;101495.13;5023751;28;20026;-75
2023/03/27 01:12:13;;;;;;;5.55;1.58;;;;;;;2.47;90.77;101489.72;5007072;28;20741;-74
2023/03/27 01:14:58;;;;;;;7.07;1.60;;;;;;;2.49;89.89;101503.09;5006989;28;20079;-75
2023/03/27 01:17:40;;;;;;;9.30;1.13;;;;;;;2.49;90.62;101505.78;5021105;28;20101;-74
2023/03/27 01:20:50;;;;;;;3.67;1.20;;;;;;;2.51;90.01;101510.19;5008378;28;20121;-74
2023/03/27 01:23:35;;;;;;;9.18;1.75;;;;;;;2.54;91.29;101509.22;4986184;28;20612;-74
2023/03/27 01:26:06;;;;;;;4.32;1.40;;;;;;;2.55;90.98;101517.22;5038939;28;20050;-74
2023/03/27 01:29:01;;;;;;;5.93;1.58;;;;;;;2.58;91.23;101512.72;5006650;28;20119;-74
2023/03/27 01:31:42;;;;;;;4.13;1.48;;;;;;;2.61;91.23;101516.19;5004074;28;20038;-74
2023/03/27 01:34:45;;;;;;;6.25;1.50;;;;;;;2.63;91.58;101525.06;5007841;28;20041;-74
2023/03/27 01:37:32;;;;;;;6.85;1.35;;;;;;;2.66;91.45;101524.09;5006243;28;20053;-74
2023/03/27 01:40:13;;;;;;;3.08;1.23;;;;;;;2.66;92.15;101508.88;5016343;28;20580;-74
2023/03/27 01:42:57;;;;;;;5.10;1.40;;;;;;;2.67;92.57;101524.06;5024509;28;20030;-74
2023/03/27 01:45:43;;;;;;;2.22;1.17;;;;;;;2.65;92.44;101527.72;5022438;28;20045;-74
2023/03/27 01:48:19;;;;;;;9.38;1.70;;;;;;;2.63;92.43;101535.81;5021219;28;20041;-74
2023/03/27 01:51:00;;;;;;;8.98;1.55;;;;;;;2.60;92.21;101533.22;5006079;28;20120;-74
2023/03/27 01:53:32;;;;;;;5.43;1.77;;;;;;;2.57;92.04;101533.31;5005953;28;20046;-74
2023/03/27 01:56:08;;;;;;;14.75;2.45;;;;;;;2.53;91.91;101537.00;5006317;28;20490;-74
2023/03/27 01:58:46;;;;;;;8.57;2.28;;;;;;;2.52;91.70;101535.25;5012704;28;20042;-74
2023/03/27 02:01:27;;;;;;;8.73;1.73;;;;;;;2.51;91.66;101536.16;5010198;28;20136;-74
2023/03/27 02:03:56;;;;;;;6.25;1.88;;;;;;;2.49;92.24;101536.22;4989939;28;20052;-74
2023/03/27 02:06:40;;;;;;;5.40;1.60;;;;;;;2.47;91.88;101532.69;5005719;28;20049;-74
2023/03/27 02:09:16;;;;;;;6.80;2.42;;;;;;;2.44;91.63;101543.50;5005823;28;20025;-74
2023/03/27 02:11:51;;;;;;;2.55;1.45;;;;;;;2.43;92.00;101549.81;5004472;28;20505;-74
2023/03/27 02:14:22;;;;;;;6.35;1.58;;;;;;;2.41;92.30;101553.44;5005937;28;20084;-74
2023/03/27 02:16:53;;;;;;;4.40;1.60;;;;;;;2.35;92.65;101551.81;5013356;28;20037;-74
2023/03/27 02:19:28;;;;;;;7.38;1.63;;;;;;;2.32;92.82;101562.63;5018857;28;20029;-74
2023/03/27 02:21:54;;;;;;;4.03;1.90;;;;;;;2.27;92.70;101572.63;5023968;28;20151;-75
2023/03/27 02:24:21;;;;;;;4.28;1.60;;;;;;;2.24;93.52;101575.41;5005654;28;20100;-74
2023/03/27 02:26:51;;;;;;;7.70;1.83;;;;;;;2.22;93.36;101582.59;5004230;28;20116;-74
2023/03/27 02:29:42;;;;;;;7.72;1.80;;;;;;;2.17;93.26;101580.03;5022243;28;20132;-74
2023/03/27 02:32:10;;;;;;;6.25;1.77;;;;;;;2.15;93.14;101575.63;5020620;28;20441;-74
2023/03/27 02:34:57;;;;;;;7.55;1.98;;;;;;;2.10;93.30;101581.13;5002072;28;20065;-74
2023/03/27 02:37:36;;;;;;;4.28;1.98;;;;;;;2.06;93.34;101579.44;5005368;28;20049;-74
2023/03/27 02:40:53;;;;;;;6.60;2.05;;;;;;;2.01;92.91;101584.03;5011773;28;20045;-75
2023/03/27 02:43:57;;;;;;;5.43;1.63;;;;;;;1.96;92.65;101594.88;5006652;28;20438;-74
2023/03/27 02:47:00;;;;;;;7.63;1.80;;;;;;;1.90;93.25;101588.78;5017081;28;20154;-74
2023/03/27 02:49:33;;;;;;;3.45;1.90;;;;;;;1.85;93.46;101606.78;5020987;28;20405;-75
2023/03/27 02:52:06;;;;;;;5.43;1.70;;;;;;;1.81;93.50;101602.41;4992842;28;20080;-75
2023/03/27 02:54:38;;;;;;;4.32;1.60;;;;;;;1.75;93.96;101604.31;5013375;28;20764;-74
2023/03/27 02:57:09;;;;;;;4.88;1.95;;;;;;;1.74;93.81;101602.56;5008287;28;20037;-74
2023/03/27 02:59:59;;;;;;;4.43;1.63;;;;;;;1.75;94.17;101603.44;5018805;28;20049;-74
2023/03/27 03:02:32;;;;;;;8.65;2.00;;;;;;;1.76;94.76;101605.19;4990212;28;20045;-75
2023/03/27 03:05:07;;;;;;;4.32;1.55;;;;;;;1.79;94.96;101607.81;5007124;28;20048;-75
2023/03/27 03:07:39;;;;;;;3.03;1.77;;;;;;;1.81;94.87;101616.69;5024452;28;20449;-75
2023/03/27 03:10:10;;;;;;;6.22;2.10;;;;;;;1.82;95.07;101617.59;5017076;28;20043;-74
2023/03/27 03:12:36;;;;;;;6.60;1.88;;;;;;;1.83;94.92;101627.41;5025984;28;20620;-75
2023/03/27 03:15:02;;;;;;;3.33;1.70;;;;;;;1.82;94.67;101631.00;4993330;28;20124;-74
2023/03/27 03:17:29;;;;;;;4.20;1.55;;;;;;;1.77;94.50;101632.00;5005145;28;20440;-74
2023/03/27 03:19:54;;;;;;;6.53;2.05;;;;;;;1.75;94.35;101639.19;5004914;28;20076;-74
2023/03/27 03:22:19;;;;;;;7.68;2.25;;;;;;;1.70;94.56;101630.38;5004769;28;20462;-74
2023/03/27 03:24:45;;;;;;;7.97;2.20;;;;;;;1.69;94.60;101647.41;5012530;28;20034;-75
2023/03/27 03:27:14;;;;;;;2.15;1.48;;;;;;;1.64;94.63;101641.25;5023899;28;20033;-74
2023/03/27 03:29:47;;;;;;;8.23;2.50;;;;;;;1.60;94.45;101649.41;5024542;28;20077;-74
2023/03/27 03:32:18;;;;;;;6.05;1.65;;;;;;;1.57;94.46;101652.16;5006701;28;20046;-74
2023/03/27 03:34:47;;;;;;;3.97;1.70;;;;;;;1.56;94.42;101656.63;5004945;28;20176;-74
2023/03/27 03:37:14;;;;;;;7.00;2.05;;;;;;;1.52;94.69;101654.94;5004300;28;20402;-75
2023/03/27 03:39:39;;;;;;;6.40;1.92;;;;;;;1.51;94.94;101667.44;5004398;28;20030;-75
2023/03/27 03:42:05;;;;;;;6.85;1.88;;;;;;;1.51;94.88;101666.56;5004038;28;20034;-75
2023/03/27 03:44:30;;;;;;;5.63;2.03;;;;;;;1.51;95.10;101671.94;5005381;28;20030;-75
2023/03/27 03:46:59;;;;;;;6.13;1.60;;;;;;;1.51;95.33;101669.25;5005266;28;20131;-75
2023/03/27 03:49:24;;;;;;;6.50;1.77;;;;;;;1.55;95.27;101678.13;5002090;28;20135;-75
2023/03/27 03:51:50;;;;;;;5.85;2.05;;;;;;;1.56;95.14;101677.19;5015131;28;20075;-75
2023/03/27 03:54:15;;;;;;;5.57;1.73;;;;;;;1.59;95.29;101688.75;5004678;28;20393;-75
2023/03/27 03:56:42;;;;;;;10.10;2.03;;;;;;;1.62;94.53;101690.47;4987358;28;20124;-75
2023/03/27 03:59:08;;;;;;;6.38;1.80;;;;;;;1.64;94.79;101699.38;5016024;28;20179;-75
2023/03/27 04:01:35;;;;;;;4.00;1.75;;;;;;;1.63;94.56;101697.59;5006711;28;20493;-75
2023/03/27 04:04:03;;;;;;;6.88;1.90;;;;;;;1.63;95.34;101697.59;5008067;28;20033;-75
2023/03/27 04:06:47;;;;;;;5.63;1.73;;;;;;;1.66;94.82;101700.22;4989592;28;20037;-75
2023/03/27 04:09:13;;;;;;;6.63;2.22;;;;;;;1.67;94.53;101707.34;5003963;28;20030;-75
2023/03/27 04:11:52;;;;;;;6.70;1.85;;;;;;;1.67;94.76;101712.69;5002927;28;20057;-75
2023/03/27 04:14:41;;;;;;;4.50;2.10;;;;;;;1.66;94.42;101718.97;5004187;28;20034;-75
2023/03/27 04:17:26;;;;;;;5.72;2.08;;;;;;;1.65;94.70;101717.22;5021798;28;20045;-75
2023/03/27 04:19:54;;;;;;;6.07;1.60;;;;;;;1.65;94.84;101723.47;5009272;28;20390;-75
2023/03/27 04:22:21;;;;;;;10.30;1.98;;;;;;;1.64;94.72;101724.38;4991478;28;20024;-75
2023/03/27 04:24:49;;;;;;;4.35;1.70;;;;;;;1.64;94.71;101724.38;5007456;28;20520;-75
2023/03/27 04:27:16;;;;;;;14.15;2.03;;;;;;;1.64;94.92;101728.88;5023804;28;20556;-75
2023/03/27 04:30:09;;;;;;;6.75;2.15;;;;;;;1.62;94.94;101730.69;5009070;28;20123;-74
2023/03/27 04:32:58;;;;;;;10.15;1.88;;;;;;;1.57;94.58;101737.94;5010369;28;20061;-74
2023/03/27 04:35:51;;;;;;;6.55;2.08;;;;;;;1.55;94.55;101746.03;5014634;28;20041;-75
2023/03/27 04:38:25;;;;;;;2.70;1.73;;;;;;;1.50;94.39;101748.81;5027161;28;20048;-75
2023/03/27 04:40:52;;;;;;;11.02;2.05;;;;;;;1.47;94.64;101759.59;5008463;28;20423;-75
2023/03/27 04:43:19;;;;;;;3.70;1.75;;;;;;;1.46;94.49;101762.31;5007191;28;20018;-75
2023/03/27 04:45:48;;;;;;;2.47;1.42;;;;;;;1.42;94.79;101768.66;5007781;28;20484;-75
2023/03/27 04:48:14;;;;;;;6.53;1.98;;;;;;;1.41;95.11;101772.25;5007562;28;20068;-75
2023/03/27 04:50:48;;;;;;;6.38;1.80;;;;;;;1.38;95.21;101770.50;5007184;28;20034;-75
2023/03/27 04:53:16;;;;;;;4.47;1.65;;;;;;;1.39;95.15;101766.91;5023400;28;20030;-74
2023/03/27 04:55:49;;;;;;;8.60;1.90;;;;;;;1.39;95.78;101766.91;5006586;28;20393;-74
2023/03/27 04:58:17;;;;;;;10.40;1.98;;;;;;;1.38;95.34;101765.13;5008220;28;20481;-75
2023/03/27 05:00:49;;;;;;;6.40;1.77;;;;;;;1.41;95.61;101781.16;5007956;28;20064;-75
2023/03/27 05:03:40;;;;;;;5.43;2.25;;;;;;;1.43;95.49;101779.31;5008632;28;20076;-75
2023/03/27 05:06:26;;;;;;;6.03;1.70;;;;;;;1.44;95.27;101783.78;5008099;28;20052;-75
2023/03/27 05:08:52;;;;;;;5.85;2.08;;;;;;;1.47;96.00;101789.09;4990783;28;20497;-75
2023/03/27 05:11:24;;;;;;;5.72;1.88;;;;;;;1.49;95.46;101789.03;4990472;28;20037;-74
2023/03/27 05:13:50;;;;;;;9.35;2.40;;;;;;;1.50;95.83;101788.16;5006495;28;20125;-74
2023/03/27 05:16:19;;;;;;;3.65;1.75;;;;;;;1.50;96.15;101793.50;5006838;28;20116;-75
2023/03/27 05:18:48;;;;;;;8.05;2.05;;;;;;;1.50;95.80;101801.56;4990696;28;20037;-74
2023/03/27 05:21:13;;;;;;;4.60;1.70;;;;;;;1.49;96.05;101805.13;5006624;28;20405;-74
2023/03/27 05:23:39;;;;;;;7.05;2.05;;;;;;;1.48;96.34;101809.63;5007012;28;20116;-75
2023/03/27 05:26:06;;;;;;;4.88;1.85;;;;;;;1.48;96.16;101806.94;5005908;28;20490;-75
2023/03/27 05:28:45;;;;;;;4.10;2.03;;;;;;;1.51;96.56;101808.69;5006652;28;20088;-74
2023/03/27 05:31:11;;;;;;;5.68;1.92;;;;;;;1.53;96.61;101821.13;5007169;28;20058;-75
2023/03/27 05:33:52;;;;;;;7.97;1.75;;;;;;;1.55;96.46;101822.94;5006649;28;20033;-75
2023/03/27 05:36:19;;;;;;;9.48;1.90;;;;;;;1.58;96.51;101831.75;5006809;28;20076;-74
2023/03/27 05:38:45;;;;;;;2.83;1.65;;;;;;;1.61;96.63;101823.69;5006649;28;20041;-75
2023/03/27 05:41:14;;;;;;;5.57;1.75;;;;;;;1.65;96.98;101827.19;5025223;28;20053;-74
2023/03/27 05:43:44;;;;;;;3.05;2.10;;;;;;;1.75;97.05;101829.66;5025866;28;20446;-74
2023/03/27 05:46:11;;;;;;;4.65;1.95;;;;;;;1.91;97.07;101834.69;5010996;28;20033;-74
2023/03/27 05:48:45;;;;;;;9.40;2.25;;;;;;;2.17;96.81;101840.41;5013677;28;20037;-75
2023/03/27 05:51:10;;;;;;;4.75;1.95;;;;;;;2.49;95.73;101842.38;5042356;28;20520;-75
2023/03/27 05:53:39;;;;;;;8.20;2.17;;;;;;;2.76;94.12;101845.34;5025914;28;20049;-74
2023/03/27 05:56:19;;;;;;;7.53;1.70;;;;;;;3.02;93.20;101850.06;5005456;28;20444;-74
2023/03/27 05:58:57;;;;;;;2.78;1.70;;;;;;;3.48;91.63;101847.06;5011440;28;20029;-74
2023/03/27 06:01:24;;;;;;;5.28;2.40;;;;;;;3.66;90.61;101858.25;5020038;28;20461;-74
2023/03/27 06:03:54;;;;;;;6.47;2.20;;;;;;;3.65;90.18;101861.88;5017704;28;20022;-74
2023/03/27 06:06:22;;;;;;;10.77;1.80;;;;;;;3.41;91.30;101879.56;5008990;28;20472;-75
2023/03/27 06:08:54;;;;;;;6.15;2.05;;;;;;;3.14;91.69;101886.50;4993967;28;20115;-74
2023/03/27 06:11:20;;;;;;;10.77;2.47;;;;;;;2.92;92.84;101894.22;5020333;28;20029;-75
2023/03/27 06:13:46;;;;;;;5.53;2.50;;;;;;;2.76;93.94;101899.94;5012645;28;20548;-75
2023/03/27 06:16:19;;;;;;;2.90;1.77;;;;;;;2.60;93.35;101894.94;5020903;28;20568;-75
2023/03/27 06:19:03;;;;;;;2.65;1.90;;;;;;;2.39;93.26;101882.91;5014359;28;20053;-76
2023/03/27 06:21:29;;;;;;;5.53;1.67;;;;;;;2.30;94.57;101881.28;5005761;28;20041;-75
2023/03/27 06:23:57;;;;;;;2.38;2.15;;;;;;;2.28;94.54;101878.66;4990296;28;20049;-75
2023/03/27 06:26:23;;;;;;;10.48;2.10;;;;;;;2.26;95.25;101885.84;5004923;28;20268;-76
2023/03/27 06:28:49;;;;;;;3.60;2.30;;;;;;;2.27;95.41;101887.59;5005546;28;20064;-75
2023/03/27 06:31:18;;;;;;;7.68;2.75;;;;;;;2.30;95.68;101889.34;4989250;28;20029;-76
2023/03/27 06:34:01;;;;;;;6.65;2.47;;;;;;;2.35;95.21;101890.13;5006238;28;20034;-75
2023/03/27 06:36:39;;;;;;;5.15;2.60;;;;;;;2.32;94.97;101906.28;5005216;28;20577;-76
2023/03/27 06:39:05;;;;;;;11.02;2.78;;;;;;;2.30;94.92;101903.66;5006845;28;20034;-76
2023/03/27 06:41:31;;;;;;;5.28;2.35;;;;;;;2.29;94.75;101903.69;5021279;28;20029;-75
2023/03/27 06:44:03;;;;;;;8.25;2.30;;;;;;;2.31;94.52;101915.28;5007487;28;20128;-75
2023/03/27 06:46:51;;;;;;;4.97;2.42;;;;;;;2.47;95.38;101913.13;4992041;28;20030;-75
2023/03/27 06:49:25;;;;;;;5.18;2.40;;;;;;;2.98;94.37;101924.50;4990299;28;20037;-75
2023/03/27 06:51:51;;;;;;;3.15;2.13;;;;;;;3.73;92.27;101916.34;5018096;28;20485;-75
2023/03/27 06:54:19;;;;;;;5.80;2.33;;;;;;;4.30;89.94;101930.00;5022473;28;20021;-75
2023/03/27 06:56:48;;;;;;;7.20;2.20;;;;;;;5.01;87.78;101917.94;5009167;28;20151;-75
2023/03/27 06:59:16;;;;;;;9.52;2.30;;;;;;;5.51;84.02;101928.00;4988592;28;20029;-75
2023/03/27 07:01:43;;;;;;;5.47;2.60;;;;;;;6.01;83.29;101928.06;5005283;28;20045;-76
2023/03/27 07:04:27;;;;;;;7.05;2.20;;;;;;;6.47;79.82;101940.75;5005342;28;20460;-75
2023/03/27 07:07:04;;;;;;;5.80;1.90;;;;;;;6.58;77.80;101929.56;5005461;28;20044;-75
2023/03/27 07:09:34;;;;;;;4.13;2.10;;;;;;;7.44;76.51;101932.38;4994278;28;20446;-75
2023/03/27 07:12:04;;;;;;;3.67;1.65;;;;;;;8.00;72.72;101939.03;5024191;28;20396;-75
2023/03/27 07:14:29;;;;;;;2.88;1.60;;;;;;;8.04;73.53;101938.81;5006214;28;20045;-75
2023/03/27 07:16:54;;;;;;;7.35;1.90;;;;;;;8.39;73.60;101940.00;5016844;28;20038;-75
2023/03/27 07:19:22;;;;;;;4.90;1.70;;;;;;;8.89;69.75;101950.28;5023377;28;20120;-76
2023/03/27 07:21:55;;;;;;;3.85;1.60;;;;;;;9.40;68.23;101943.25;5024442;28;20029;-76
2023/03/27 07:24:22;;;;;;;4.03;1.58;;;;;;;9.85;66.12;101947.31;5020377;28;20120;-76
2023/03/27 07:26:48;;;;;;;3.03;1.55;;;;;;;9.94;65.03;101955.00;5010204;28;20109;-75
2023/03/27 07:29:20;;;;;;;3.63;1.40;;;;;;;10.35;64.72;101953.78;5021350;28;20049;-75
2023/03/27 07:31:51;;;;;;;4.93;1.70;;;;;;;9.94;64.91;101956.84;5011106;28;20072;-75
2023/03/27 07:34:16;;;;;;;4.15;1.90;;;;;;;9.63;65.59;101961.13;4999773;28;20148;-75
2023/03/27 07:37:05;;;;;;;2.10;1.40;;;;;;;9.08;64.58;101958.41;5008948;28;20119;-75
2023/03/27 07:39:31;;;;;;;4.93;1.58;;;;;;;8.51;69.05;101962.06;5001736;28;21022;-75
2023/03/27 07:41:57;;;;;;;4.13;1.67;;;;;;;8.42;70.37;101960.63;5008389;28;20026;-75
2023/03/27 07:44:38;;;;;;;6.05;1.92;;;;;;;8.31;70.10;101971.94;5006666;28;20041;-75
2023/03/27 07:47:06;;;;;;;2.22;1.42;;;;;;;8.40;68.86;101974.28;5010527;28;20397;-75
2023/03/27 07:49:32;;;;;;;5.75;2.42;;;;;;;8.64;69.88;101971.41;5012130;28;20042;-75
2023/03/27 07:51:59;;;;;;;3.30;1.67;;;;;;;8.56;67.87;101974.44;5023917;28;20116;-75
2023/03/27 07:54:25;;;;;;;3.08;1.30;;;;;;;8.08;67.27;101969.38;5023518;28;20500;-75
2023/03/27 07:56:52;;;;;;;4.60;1.45;;;;;;;7.61;69.63;101969.59;5017738;28;20072;-75
2023/03/27 07:59:30;;;;;;;4.55;2.53;;;;;;;7.65;71.65;101976.66;5013890;28;20037;-75
2023/03/27 08:02:00;;;;;;;3.42;1.50;;;;;;;7.88;70.97;101983.78;5014431;28;20080;-75
2023/03/27 08:04:27;;;;;;;2.83;1.42;;;;;;;7.67;69.90;101982.88;5014757;28;20041;-75
2023/03/27 08:07:06;;;;;;;3.22;1.33;;;;;;;7.71;72.14;101989.06;5027713;28;20036;-75
2023/03/27 08:09:33;;;;;;;10.10;1.70;;;;;;;7.70;72.17;101979.16;5023054;28;20038;-75
2023/03/27 08:11:59;;;;;;;8.32;1.58;;;;;;;7.54;71.12;101990.63;5027472;28;20107;-75
2023/03/27 08:14:25;;;;;;;7.35;1.60;;;;;;;7.46;71.02;102000.00;5011677;28;20477;-75
2023/03/27 08:16:52;;;;;;;6.18;1.60;;;;;;;7.29;72.64;102003.41;5022423;28;20033;-74
2023/03/27 08:19:24;;;;;;;7.40;1.80;;;;;;;7.14;72.65;101994.09;5017457;28;20225;-75
2023/03/27 08:21:53;;;;;;;4.88;1.55;;;;;;;7.21;71.29;102001.00;5039084;28;20069;-74
2023/03/27 08:24:18;;;;;;;3.92;1.30;;;;;;;7.09;72.61;101998.81;5009666;28;20068;-75
2023/03/27 08:27:04;;;;;;;2.88;1.38;;;;;;;7.07;72.26;101995.25;5031184;28;20521;-74
2023/03/27 08:29:34;;;;;;;7.45;1.73;;;;;;;6.97;71.92;102005.56;5007275;28;20456;-74
2023/03/27 08:32:00;;;;;;;7.63;1.60;;;;;;;7.06;75.18;102009.72;5007754;28;20413;-74
2023/03/27 08:34:26;;;;;;;3.05;1.30;;;;;;;7.13;73.62;102003.13;4991387;28;20037;-75
2023/03/27 08:36:53;;;;;;;3.45;1.00;;;;;;;7.11;72.73;102000.47;5040313;28;20038;-74
2023/03/27 08:39:21;;;;;;;5.72;1.30;;;;;;;7.07;70.41;102016.91;5040153;28;20113;-74
2023/03/27 08:42:02;;;;;;;5.88;1.02;;;;;;;6.91;73.46;102024.75;5004910;28;20740;-74
2023/03/27 08:44:33;;;;;;;5.43;1.17;;;;;;;6.63;71.68;102022.19;5027215;28;20296;-74
2023/03/27 08:47:30;;;;;;;6.30;1.70;;;;;;;6.63;72.68;102024.91;5018674;28;20034;-74
2023/03/27 08:50:09;;;;;;;3.17;1.50;;;;;;;6.58;72.21;102025.06;5057299;28;20041;-75
2023/03/27 08:52:45;;;;;;;5.95;1.67;;;;;;;6.34;70.85;102031.34;5018439;28;20079;-74
2023/03/27 08:55:24;;;;;;;4.13;1.30;;;;;;;6.13;73.45;102030.28;5006217;28;20083;-74
2023/03/27 08:57:59;;;;;;;6.13;1.07;;;;;;;6.23;73.16;102033.56;5007210;28;20037;-74
2023/03/27 09:00:33;;;;;;;4.00;0.85;;;;;;;6.37;73.07;102031.25;5006827;28;20038;-74
2023/03/27 09:03:56;;;;;;;6.45;1.48;;;;;;;6.46;70.75;102052.53;5016177;28;20056;-74
2023/03/27 09:06:28;;;;;;;3.72;1.10;;;;;;;6.45;70.48;102060.72;5009523;28;20037;-74
2023/03/27 09:09:31;;;;;;;7.93;1.52;;;;;;;6.57;72.90;102047.59;5029821;28;20037;-74
2023/03/27 09:12:17;;;;;;;4.75;1.20;;;;;;;6.86;70.75;102051.09;4989152;28;20037;-74
2023/03/27 09:14:51;;;;;;;2.60;0.88;;;;;;;7.15;73.09;102044.56;5007077;28;20549;-74
2023/03/27 09:17:22;;;;;;;;;;;;;;;7.19;69.23;102057.03;5002160;28;20512;-74
2023/03/27 09:19:55;;;;;;;5.78;1.05;;;;;;;7.16;68.01;102055.31;5018999;28;19917;-74
2023/03/27 09:22:29;;;;;;;2.80;1.10;;;;;;;7.33;64.96;102067.31;5043755;28;20036;-74
2023/03/27 09:25:13;;;;;;;7.50;1.25;;;;;;;6.86;70.23;102095.25;5007061;28;20046;-74
2023/03/27 09:28:00;;;;;;;5.13;1.23;;;;;;;5.87;74.82;102104.97;5007603;28;20456;-74
2023/03/27 09:30:37;;;;;;;1.63;0.98;;;;;;;5.31;74.58;102106.72;5005951;28;20034;-75
2023/03/27 09:33:11;;;;;;;1.15;0.77;;;;;;;4.78;78.49;102120.84;5008203;28;20038;-75
2023/03/27 09:35:37;;;;;;;1.33;0.73;;;;;;;4.71;81.40;102124.66;5009536;28;20116;-75
2023/03/27 09:38:22;;;;;;;0.60;0.60;;;;;;;4.78;81.98;102107.38;5018850;28;20505;-75
2023/03/27 09:41:17;;;;;;;3.88;1.17;;;;;;;4.94;80.35;102099.72;5021536;28;20049;-75
2023/03/27 09:44:10;;;;;;;2.40;0.90;;;;;;;5.04;80.32;102100.38;4989143;28;20050;-75
2023/03/27 09:46:44;;;;;;;3.38;0.80;;;;;;;5.17;81.81;102101.75;4989851;28;20041;-74
2023/03/27 09:49:13;;;;;;;3.63;0.95;;;;;;;5.36;82.42;102100.28;5006026;28;20494;-75
2023/03/27 09:51:44;;;;;;;3.78;1.05;;;;;;;5.54;82.49;102097.94;5005610;28;20555;-75
2023/03/27 09:54:23;;;;;;;1.08;0.77;;;;;;;5.85;82.33;102103.25;5006022;28;20504;-74
2023/03/27 09:57:03;;;;;;;1.92;1.00;;;;;;;6.05;79.57;102108.88;5004986;28;20037;-75
2023/03/27 09:59:32;;;;;;;2.85;0.85;;;;;;;6.00;78.38;102113.56;5022850;28;20132;-74
2023/03/27 10:02:26;;;;;;;2.88;1.05;;;;;;;5.92;78.73;102121.03;5005370;28;20456;-74
2023/03/27 10:04:58;;;;;;;2.70;0.80;;;;;;;6.08;79.83;102119.59;5006089;28;20056;-74
2023/03/27 10:07:29;;;;;;;4.22;0.95;;;;;;;6.36;80.14;102115.97;5006106;28;20041;-75
2023/03/27 10:10:18;;;;;;;5.07;1.08;;;;;;;6.81;83.10;102116.16;5005341;28;20583;-74
2023/03/27 10:13:03;;;;;;;1.33;1.08;;;;;;;7.20;78.03;102121.03;5007924;28;20050;-74
2023/03/27 10:15:38;;;;;;;5.40;1.02;;;;;;;7.65;77.94;102114.78;5005648;28;20026;-74
2023/03/27 10:18:21;;;;;;;4.05;1.10;;;;;;;8.08;77.21;102111.19;5023374;28;20043;-74
2023/03/27 10:20:56;;;;;;;3.85;0.98;;;;;;;8.43;72.95;102114.25;5021977;28;20036;-74
2023/03/27 10:23:27;;;;;;;6.53;0.70;;;;;;;8.54;72.36;102103.84;5017930;28;20187;-74
2023/03/27 10:25:58;;;;;;;6.10;1.20;;;;;;;8.55;72.32;102113.75;5010464;28;20053;-74
2023/03/27 10:28:32;;;;;;;7.15;1.35;;;;;;;8.56;72.88;102110.06;5005457;28;20042;-74
2023/03/27 10:31:30;;;;;;;3.85;1.20;;;;;;;8.67;75.23;102105.06;4997580;28;20049;-74
2023/03/27 10:34:04;;;;;;;2.42;0.90;;;;;;;8.82;71.47;102105.34;5006413;28;20379;-73
2023/03/27 10:37:26;;;;;;;4.32;0.90;;;;;;;8.82;71.36;102111.63;5006117;28;20068;-74
2023/03/27 10:40:01;;;;;;;4.90;1.23;;;;;;;8.98;65.08;102100.97;5005174;28;20508;-74
2023/03/27 10:42:36;;;;;;;3.45;1.02;;;;;;;9.03;68.51;102100.75;5004963;28;20508;-74
2023/03/27 10:45:02;;;;;;;1.38;0.90;;;;;;;9.13;66.84;102102.09;5005798;28;20029;-73
2023/03/27 10:47:32;;;;;;;5.20;1.20;;;;;;;9.34;67.58;102108.38;5008570;28;20029;-73
2023/03/27 10:50:39;;;;;;;4.20;1.08;;;;;;;9.59;65.79;102111.66;5005453;28;20033;-74
2023/03/27 10:53:15;;;;;;;8.15;1.45;;;;;;;9.03;61.97;102127.91;5010555;28;20041;-73
2023/03/27 10:56:25;;;;;;;1.95;0.95;;;;;;;7.85;65.90;102165.44;5021510;28;20110;-74
2023/03/27 10:59:00;;;;;;;2.85;1.00;;;;;;;6.35;70.20;102182.66;5037173;28;20088;-75
2023/03/27 11:01:33;;;;;;;5.47;1.20;;;;;;;5.51;74.07;102189.81;5022005;28;20037;-77
2023/03/27 11:04:18;;;;;;;7.97;1.30;;;;;;;4.78;77.55;102214.34;5034692;28;20042;-77
2023/03/27 11:06:56;;;;;;;8.30;1.42;;;;;;;4.26;81.25;102203.06;4995008;28;20481;-78
2023/03/27 11:09:22;;;;;;;;;;;;;;;4.23;79.44;102194.16;5007315;28;20482;-78
2023/03/27 11:12:13;;;;;;;2.42;1.08;;;;;;;4.08;82.32;102192.72;5037323;28;19918;-77
2023/03/27 11:14:52;;;;;;;3.67;0.82;;;;;;;4.12;82.59;102191.75;5022715;28;20038;-76
2023/03/27 11:17:28;;;;;;;3.30;1.40;;;;;;;4.23;83.91;102189.66;5004785;28;20517;-77
2023/03/27 11:20:42;;;;;;;3.33;1.25;;;;;;;4.43;83.38;102185.56;5004961;28;20537;-76
2023/03/27 11:23:16;;;;;;;3.08;1.10;;;;;;;4.72;85.25;102180.34;5005964;28;20195;-75
2023/03/27 11:26:10;;;;;;;2.78;0.93;;;;;;;4.96;83.88;102184.19;5004235;28;20140;-75
2023/03/27 11:28:42;;;;;;;5.80;1.23;;;;;;;5.30;86.04;102177.81;5006069;28;20050;-75
2023/03/27 11:31:27;;;;;;;1.17;0.73;;;;;;;5.73;86.11;102172.00;5009663;28;20346;-75
2023/03/27 11:34:19;;;;;;;8.95;1.58;;;;;;;6.19;87.01;102173.28;5010786;28;20060;-75
2023/03/27 11:36:50;;;;;;;2.30;0.90;;;;;;;6.66;86.44;102181.59;5002334;28;20120;-75
2023/03/27 11:39:35;;;;;;;8.02;1.80;;;;;;;6.90;79.52;102180.75;5011502;28;20816;-74
2023/03/27 11:42:12;;;;;;;4.93;1.30;;;;;;;7.19;84.95;102172.53;5010965;28;20107;-74
2023/03/27 11:44:37;;;;;;;7.22;1.50;;;;;;;7.43;78.77;102177.00;5028431;28;20319;-75
2023/03/27 11:47:18;;;;;;;3.20;1.13;;;;;;;7.89;84.49;102169.81;5014857;28;20045;-74
2023/03/27 11:49:48;;;;;;;4.18;1.23;;;;;;;8.33;77.96;102178.81;5009049;28;20450;-75
2023/03/27 11:52:35;;;;;;;4.38;1.20;;;;;;;8.83;79.88;102177.66;4994316;28;20038;-75
2023/03/27 11:55:07;;;;;;;5.60;1.10;;;;;;;9.23;78.32;102173.13;5013793;28;20036;-75
2023/03/27 11:57:56;;;;;;;3.47;1.38;;;;;;;9.75;78.73;102163.47;5008369;28;20141;-74
2023/03/27 12:00:41;;;;;;;6.60;1.38;;;;;;;10.00;69.54;102170.41;4993788;28;20061;-75
2023/03/27 12:03:44;;;;;;;3.95;0.93;;;;;;;9.76;68.11;102184.22;5014223;28;20038;-74
2023/03/27 12:06:34;;;;;;;2.65;0.63;;;;;;;9.52;56.87;102182.69;5008642;28;20524;-74
2023/03/27 12:09:20;;;;;;;5.63;0.77;;;;;;;9.43;56.21;102175.84;5009181;28;20056;-74